Terminal Aerodrome Forecast
Issued by NWS Quad Cities IA IL

Home | Current Version | Previous Version | Text Only | Print | Product List | Glossary On
Versions: 1 2 3 4 5 6 7 8 9 10 11 12 13 14 15 16 17 18 19 20 21 22 23 24
000
FTUS43 KDVN 251200 AAA
TAFDBQ
TAF AMD
KDBQ 251206Z 2512/2612 29009KT 3SM BR BKN006 OVC010
      TEMPO 2512/2514 2SM BR
     FM251400 27011KT 3SM BR OVC006
     FM251900 27015G22KT P6SM BKN020
     FM252100 29015G22KT P6SM BKN040
     FM260000 31011KT P6SM BKN200=

USA.gov is the U.S. government's official web portal to all federal, state and local government web resources and services.